Time;durP1;ratioP1;P1;durP2;ratioP2;P2;SDS_P1;SDS_P2;PMS_P1;PMS_P2;Temp;Humidity;BMP_temperature;BMP_pressure;BME280_temperature;BME280_humidity;BME280_pressure;Samples;Min_cycle;Max_cycle;Signal;HPM_P1;HPM_P2
2022/10/24 00:00:51;;;;;;;4.90;1.15;;;;;;;19.83;53.87;99409.69;1087237;54;20681;-82
2022/10/24 00:01:53;;;;;;;4.65;1.35;;;;;;;19.80;54.26;99413.63;1087244;54;20035;-82
2022/10/24 00:02:57;;;;;;;4.90;1.70;;;;;;;19.82;54.27;99411.53;1087369;54;20034;-83
2022/10/24 00:03:59;;;;;;;6.13;1.33;;;;;;;19.79;53.80;99417.41;1087481;54;20042;-84
2022/10/24 00:05:03;;;;;;;4.10;1.42;;;;;;;19.81;54.39;99412.59;1087427;54;20038;-83
2022/10/24 00:06:06;;;;;;;4.00;1.30;;;;;;;19.77;54.33;99422.22;1087598;54;20061;-82
2022/10/24 00:07:11;;;;;;;6.28;1.35;;;;;;;19.68;54.35;99416.25;1089631;39;20677;-82
2022/10/24 00:08:12;;;;;;;4.18;1.30;;;;;;;19.72;54.38;99412.03;1087347;54;20069;-83
2022/10/24 00:09:16;;;;;;;5.28;1.00;;;;;;;19.72;54.11;99412.03;1087405;54;20038;-83
2022/10/24 00:10:18;;;;;;;4.15;1.17;;;;;;;19.73;54.49;99410.16;1088003;46;20034;-82
2022/10/24 00:11:25;;;;;;;4.28;1.30;;;;;;;19.54;54.50;99420.94;1087527;54;20034;-83
2022/10/24 00:12:29;;;;;;;6.47;1.60;;;;;;;19.60;54.80;99430.06;1087869;39;20653;-82
2022/10/24 00:13:33;;;;;;;5.47;1.23;;;;;;;19.64;54.49;99423.16;1087492;54;20086;-82
2022/10/24 00:14:38;;;;;;;3.95;1.10;;;;;;;19.64;54.79;99426.69;1087508;54;20043;-82
2022/10/24 00:15:43;;;;;;;3.88;1.10;;;;;;;19.56;54.81;99424.25;1087522;54;20790;-83
2022/10/24 00:16:47;;;;;;;5.72;1.67;;;;;;;19.50;55.37;99414.28;1087525;54;20053;-83
2022/10/24 00:17:49;;;;;;;5.15;1.83;;;;;;;19.51;55.01;99415.13;1087464;54;20034;-82
2022/10/24 00:18:53;;;;;;;4.07;1.15;;;;;;;19.51;55.13;99415.13;1087502;54;20041;-83
2022/10/24 00:19:57;;;;;;;6.10;1.33;;;;;;;19.44;55.39;99429.56;1087557;46;20053;-81
2022/10/24 00:21:01;;;;;;;8.95;1.80;;;;;;;19.34;55.30;99423.78;1092630;39;20630;-82
2022/10/24 00:22:04;;;;;;;7.53;1.30;;;;;;;19.31;55.84;99424.19;1087491;54;20050;-83
2022/10/24 00:23:08;;;;;;;5.63;1.30;;;;;;;19.34;55.73;99431.91;1087494;54;20030;-83
2022/10/24 00:24:10;;;;;;;3.80;1.42;;;;;;;19.36;55.78;99429.81;1088545;39;20291;-82
2022/10/24 00:25:14;;;;;;;4.82;1.10;;;;;;;19.40;55.72;99427.50;1087356;54;20039;-83
2022/10/24 00:26:16;;;;;;;3.72;1.23;;;;;;;19.33;55.69;99419.41;1087531;54;20069;-83
2022/10/24 00:27:20;;;;;;;4.05;1.30;;;;;;;19.34;55.65;99421.06;1089260;46;20030;-83
2022/10/24 00:28:24;;;;;;;5.93;1.45;;;;;;;19.34;55.87;99423.78;1087465;54;20061;-83
2022/10/24 00:29:28;;;;;;;8.05;1.73;;;;;;;19.32;56.03;99420.44;1087519;54;20990;-85
2022/10/24 00:30:30;;;;;;;3.97;1.00;;;;;;;19.34;55.76;99426.47;1087371;54;20048;-84
2022/10/24 00:31:34;;;;;;;6.63;1.42;;;;;;;19.29;56.34;99423.56;1087526;54;20046;-84
2022/10/24 00:32:36;;;;;;;4.25;1.10;;;;;;;19.24;56.87;99429.66;1088244;46;20038;-83
2022/10/24 00:33:40;;;;;;;5.00;1.05;;;;;;;19.26;56.65;99418.63;1087502;54;20034;-83
2022/10/24 00:34:41;;;;;;;5.35;1.50;;;;;;;19.18;56.76;99422.41;1090436;39;20676;-83
2022/10/24 00:35:45;;;;;;;5.07;1.45;;;;;;;19.21;57.03;99421.13;1087393;54;20034;-83
2022/10/24 00:36:47;;;;;;;4.85;1.20;;;;;;;19.22;57.08;99422.78;1087468;54;21157;-82
2022/10/24 00:37:51;;;;;;;5.07;1.35;;;;;;;19.20;57.14;99430.28;1087530;54;20014;-83
2022/10/24 00:38:53;;;;;;;5.25;1.63;;;;;;;19.15;57.36;99431.78;1087425;54;20069;-85
2022/10/24 00:39:57;;;;;;;5.15;1.63;;;;;;;19.13;57.66;99424.91;1087910;39;21151;-86
2022/10/24 00:40:59;;;;;;;3.60;1.25;;;;;;;19.03;58.12;99428.09;1087352;54;20069;-82
2022/10/24 00:42:03;;;;;;;5.35;1.35;;;;;;;19.00;58.09;99425.81;1087454;54;20035;-82
2022/10/24 00:43:12;;;;;;;5.38;1.40;;;;;;;18.83;58.81;99437.09;1087488;54;20042;-84
2022/10/24 00:44:22;;;;;;;4.30;1.25;;;;;;;18.82;59.21;99434.63;1087441;54;20034;-82
2022/10/24 00:45:38;;;;;;;4.75;1.10;;;;;;;18.79;59.27;99435.03;1087381;54;20068;-82
2022/10/24 00:46:45;;;;;;;5.07;1.20;;;;;;;18.82;59.33;99440.84;1087497;54;20038;-83
2022/10/24 00:47:46;;;;;;;4.60;1.40;;;;;;;18.86;59.08;99443.94;1091084;39;20700;-83
2022/10/24 00:48:53;;;;;;;6.35;1.30;;;;;;;18.83;59.47;99436.28;1087436;54;20035;-85
2022/10/24 00:50:04;;;;;;;4.38;1.55;;;;;;;18.85;59.28;99440.44;1087417;54;20039;-83
2022/10/24 00:51:13;;;;;;;3.25;1.10;;;;;;;18.81;59.26;99438.38;1087501;54;20035;-83
2022/10/24 00:52:23;;;;;;;3.65;1.05;;;;;;;18.80;59.78;99440.22;1087414;54;20041;-83
2022/10/24 00:53:26;;;;;;;4.75;1.52;;;;;;;18.79;59.98;99446.72;1087500;54;21144;-84
2022/10/24 00:54:31;;;;;;;6.07;1.42;;;;;;;18.77;60.13;99437.97;1090792;46;20054;-83
2022/10/24 00:55:32;;;;;;;4.75;1.50;;;;;;;18.66;60.26;99435.91;1092546;31;20756;-84
2022/10/24 00:56:40;;;;;;;5.00;1.42;;;;;;;18.54;60.72;99447.38;1087503;54;20046;-84
2022/10/24 00:57:49;;;;;;;4.65;1.40;;;;;;;18.58;60.43;99449.69;1087419;54;20065;-84
2022/10/24 00:58:52;;;;;;;4.32;1.33;;;;;;;18.64;60.50;99443.41;1087501;54;20042;-84
2022/10/24 01:00:03;;;;;;;5.13;1.60;;;;;;;18.41;61.86;99452.84;1087461;54;20031;-83
2022/10/24 01:01:05;;;;;;;7.45;1.67;;;;;;;18.41;61.52;99444.72;1087444;54;20034;-84
2022/10/24 01:02:10;;;;;;;6.43;1.83;;;;;;;18.52;61.22;99452.16;1087534;54;20034;-83
2022/10/24 01:03:12;;;;;;;6.88;2.22;;;;;;;18.47;61.15;99445.72;1087445;54;20379;-84
2022/10/24 01:04:16;;;;;;;6.55;1.73;;;;;;;18.46;61.47;99442.19;1087539;54;20018;-84
2022/10/24 01:05:19;;;;;;;5.72;1.98;;;;;;;18.52;61.43;99441.34;1087366;54;20047;-87
2022/10/24 01:06:38;;;;;;;3.95;1.60;;;;;;;18.47;61.63;99443.88;1087441;54;20058;-83
2022/10/24 01:07:51;;;;;;;5.60;1.63;;;;;;;18.44;60.80;99444.28;1087466;54;20023;-85
2022/10/24 01:09:05;;;;;;;3.75;1.40;;;;;;;18.46;61.61;99441.38;1087352;54;20820;-83
2022/10/24 01:10:25;;;;;;;4.93;1.80;;;;;;;18.46;61.49;99444.91;1089017;31;20675;-83
2022/10/24 01:11:48;;;;;;;4.00;1.40;;;;;;;18.37;61.88;99443.47;1088976;46;20041;-84
2022/10/24 01:13:04;;;;;;;5.47;2.03;;;;;;;18.26;62.11;99439.53;1088687;46;20046;-82
2022/10/24 01:14:15;;;;;;;4.93;1.73;;;;;;;18.26;62.13;99444.94;1087811;46;20058;-83
2022/10/24 01:15:24;;;;;;;;;;;;;;;18.11;61.98;99438.91;1087606;54;20042;-83
2022/10/24 01:16:35;;;;;;;4.43;1.70;;;;;;;18.09;61.86;99437.25;1087483;54;19943;-82
2022/10/24 01:17:44;;;;;;;8.07;2.33;;;;;;;18.15;61.50;99437.47;1087466;54;20065;-83
2022/10/24 01:18:52;;;;;;;5.13;1.80;;;;;;;18.27;61.17;99437.66;1087455;54;20039;-83
2022/10/24 01:20:28;;;;;;;4.22;1.58;;;;;;;18.21;61.11;99439.31;1087348;54;20034;-83
2022/10/24 01:21:33;;;;;;;5.70;1.70;;;;;;;18.21;60.86;99432.06;1087103;47;20430;-83
2022/10/24 01:22:49;;;;;;;6.20;1.80;;;;;;;18.22;61.00;99441.00;1087072;54;20046;-85
2022/10/24 01:24:07;;;;;;;8.65;2.10;;;;;;;18.22;61.03;99430.16;1089052;39;20310;-84
2022/10/24 01:25:16;;;;;;;4.07;1.30;;;;;;;18.21;60.94;99434.75;1087050;54;20102;-83
2022/10/24 01:26:37;;;;;;;6.72;1.65;;;;;;;18.23;61.10;99423.72;1087068;54;20065;-84
2022/10/24 01:27:56;;;;;;;4.82;1.35;;;;;;;18.23;60.70;99412.91;1087114;54;20030;-83
2022/10/24 01:29:07;;;;;;;5.15;1.77;;;;;;;18.17;60.57;99425.38;1086960;54;20777;-86
2022/10/24 01:30:15;;;;;;;6.53;1.48;;;;;;;18.20;60.79;99432.25;1087388;39;20740;-84
2022/10/24 01:31:24;;;;;;;3.88;1.30;;;;;;;18.29;60.63;99424.75;1086997;54;20061;-82
2022/10/24 01:32:37;;;;;;;6.68;1.42;;;;;;;18.23;60.75;99427.25;1089017;39;20390;-83
2022/10/24 01:33:41;;;;;;;5.07;1.60;;;;;;;18.26;60.53;99415.19;1087131;54;20023;-82
2022/10/24 01:34:50;;;;;;;6.18;1.48;;;;;;;18.30;60.53;99421.00;1087050;54;20054;-83
2022/10/24 01:35:59;;;;;;;4.10;1.10;;;;;;;18.27;60.70;99416.84;1086999;54;20046;-82
2022/10/24 01:37:05;;;;;;;5.22;1.20;;;;;;;18.28;60.70;99415.78;1087071;54;20031;-83
2022/10/24 01:38:17;;;;;;;4.82;1.17;;;;;;;18.20;60.69;99408.75;1087061;54;20030;-82
2022/10/24 01:39:21;;;;;;;3.72;1.27;;;;;;;18.24;60.54;99412.69;1086975;54;20064;-82
2022/10/24 01:40:31;;;;;;;3.90;1.05;;;;;;;18.29;60.25;99408.53;1087017;54;20035;-84
2022/10/24 01:41:33;;;;;;;3.63;1.20;;;;;;;18.18;60.65;99401.88;1086875;54;20039;-83
2022/10/24 01:42:39;;;;;;;3.97;1.20;;;;;;;18.17;60.36;99392.94;1087078;54;20034;-83
2022/10/24 01:43:47;;;;;;;4.18;1.02;;;;;;;18.18;60.62;99397.28;1087061;54;20799;-86
2022/10/24 01:44:54;;;;;;;4.00;1.15;;;;;;;18.19;60.49;99398.97;1087001;54;20778;-85
2022/10/24 01:46:04;;;;;;;4.55;1.10;;;;;;;18.07;61.08;99408.75;1087138;54;20078;-85
2022/10/24 01:47:11;;;;;;;5.57;1.23;;;;;;;18.09;60.94;99395.84;1087400;54;21125;-83
2022/10/24 01:48:20;;;;;;;6.05;1.40;;;;;;;17.98;61.62;99408.16;1087267;54;20035;-84
2022/10/24 01:49:26;;;;;;;3.72;1.40;;;;;;;17.96;61.79;99404.81;1087344;54;20060;-83
2022/10/24 01:50:31;;;;;;;5.15;1.35;;;;;;;17.97;61.45;99402.94;1087311;54;20031;-83
2022/10/24 01:51:34;;;;;;;6.82;1.70;;;;;;;17.90;61.39;99398.34;1087388;54;20094;-84
2022/10/24 01:52:41;;;;;;;5.95;1.60;;;;;;;17.92;61.10;99392.72;1087431;54;20030;-82
2022/10/24 01:53:44;;;;;;;5.72;1.60;;;;;;;17.85;61.49;99398.16;1087423;54;20134;-83
2022/10/24 01:54:50;;;;;;;7.63;1.40;;;;;;;17.86;61.30;99405.19;1087151;54;20058;-83
2022/10/24 01:55:53;;;;;;;6.18;1.75;;;;;;;17.87;61.06;99403.34;1087367;54;20038;-85
2022/10/24 01:56:57;;;;;;;8.60;2.08;;;;;;;17.79;61.42;99409.75;1087390;54;20039;-82
2022/10/24 01:57:59;;;;;;;4.55;1.75;;;;;;;17.77;61.23;99406.44;1087581;54;20682;-81
2022/10/24 01:59:07;;;;;;;4.53;1.60;;;;;;;17.83;60.85;99397.50;1087737;54;20041;-84
2022/10/24 02:00:16;;;;;;;6.82;1.67;;;;;;;17.81;61.04;99401.44;1087722;54;20030;-82
2022/10/24 02:01:26;;;;;;;6.35;1.90;;;;;;;17.78;60.70;99408.94;1087703;54;20035;-84
2022/10/24 02:02:32;;;;;;;6.97;1.75;;;;;;;17.77;61.07;99403.72;1087740;54;20031;-82
2022/10/24 02:03:40;;;;;;;5.65;1.30;;;;;;;17.92;60.63;99408.94;1088352;39;20678;-83
2022/10/24 02:04:54;;;;;;;10.60;2.15;;;;;;;17.72;60.64;99404.34;1087628;54;20043;-81
2022/10/24 02:06:03;;;;;;;6.30;1.65;;;;;;;17.82;60.57;99398.56;1087681;54;20035;-85
2022/10/24 02:07:08;;;;;;;5.20;1.63;;;;;;;17.82;60.35;99417.47;1087580;54;20035;-82
2022/10/24 02:08:17;;;;;;;6.40;1.50;;;;;;;17.93;60.35;99406.03;1087700;54;20030;-85
2022/10/24 02:09:20;;;;;;;4.97;1.60;;;;;;;17.88;60.37;99407.69;1087701;54;20038;-85
2022/10/24 02:10:30;;;;;;;8.63;1.90;;;;;;;17.73;60.58;99414.13;1087660;54;20035;-85
2022/10/24 02:11:36;;;;;;;6.32;1.67;;;;;;;17.89;60.40;99414.78;1088619;39;20657;-82
2022/10/24 02:12:41;;;;;;;6.28;1.70;;;;;;;17.93;59.98;99411.44;1087673;54;20043;-84
2022/10/24 02:13:52;;;;;;;7.07;2.20;;;;;;;18.02;60.01;99408.56;1087668;54;20034;-82
2022/10/24 02:15:01;;;;;;;5.82;1.65;;;;;;;18.03;59.66;99410.22;1087710;54;20061;-82
2022/10/24 02:16:07;;;;;;;4.53;1.52;;;;;;;18.06;59.69;99410.63;1087598;54;20034;-82
2022/10/24 02:17:11;;;;;;;8.30;1.77;;;;;;;18.00;59.64;99402.53;1087590;54;20068;-82
2022/10/24 02:18:17;;;;;;;4.85;1.55;;;;;;;17.99;59.98;99408.97;1087707;54;20045;-83
2022/10/24 02:19:20;;;;;;;6.60;1.60;;;;;;;18.08;59.58;99402.31;1087641;54;20025;-83
2022/10/24 02:20:44;;;;;;;6.72;1.48;;;;;;;18.04;59.26;99401.06;1087647;54;20054;-83
2022/10/24 02:21:52;;;;;;;4.13;1.05;;;;;;;18.06;59.60;99404.38;1087889;46;20042;-83
2022/10/24 02:23:02;;;;;;;5.60;1.35;;;;;;;18.05;59.48;99397.31;1087693;54;20018;-83
2022/10/24 02:24:09;;;;;;;;;;;;;;;17.85;59.86;99403.56;1087821;54;20054;-83
2022/10/24 02:25:19;;;;;;;5.20;1.30;;;;;;;17.95;59.67;99396.91;1087563;54;19943;-85
2022/10/24 02:26:29;;;;;;;4.32;1.10;;;;;;;17.86;59.77;99399.78;1087630;54;20041;-83
2022/10/24 02:27:37;;;;;;;6.78;1.70;;;;;;;18.00;59.76;99391.72;1087735;54;20030;-83
2022/10/24 02:28:44;;;;;;;6.45;1.63;;;;;;;18.02;59.31;99395.03;1087641;54;20041;-84
2022/10/24 02:29:55;;;;;;;4.97;1.55;;;;;;;18.05;59.19;99391.91;1087654;54;20034;-84
2022/10/24 02:31:02;;;;;;;7.60;2.25;;;;;;;17.97;59.51;99394.81;1087686;54;20035;-84
2022/10/24 02:32:09;;;;;;;6.88;1.88;;;;;;;18.05;59.29;99391.91;1087648;54;20078;-85
2022/10/24 02:33:18;;;;;;;4.93;1.58;;;;;;;17.97;59.23;99395.66;1087715;54;20038;-84
2022/10/24 02:34:23;;;;;;;4.40;1.30;;;;;;;18.11;59.23;99393.78;1087688;54;20053;-83
2022/10/24 02:35:31;;;;;;;4.93;1.50;;;;;;;18.09;58.83;99398.56;1087566;54;20142;-82
2022/10/24 02:36:35;;;;;;;5.90;1.50;;;;;;;18.16;59.12;99393.97;1087640;54;20027;-83
2022/10/24 02:37:46;;;;;;;5.88;1.50;;;;;;;18.15;58.99;99396.88;1087689;54;20038;-82
2022/10/24 02:38:51;;;;;;;5.82;1.50;;;;;;;18.08;58.89;99396.91;1087611;54;20038;-82
2022/10/24 02:40:01;;;;;;;6.55;1.60;;;;;;;18.09;58.99;99393.97;1087710;54;20099;-83
2022/10/24 02:41:09;;;;;;;4.15;1.38;;;;;;;18.04;58.94;99390.25;1087566;54;20030;-84
2022/10/24 02:42:15;;;;;;;5.53;1.50;;;;;;;18.12;58.95;99384.63;1087715;54;20085;-80
2022/10/24 02:43:18;;;;;;;8.15;1.85;;;;;;;18.16;58.81;99383.16;1087655;54;20034;-82
2022/10/24 02:44:24;;;;;;;5.22;1.35;;;;;;;18.14;58.75;99385.22;1089603;39;20684;-85
2022/10/24 02:45:30;;;;;;;6.65;1.73;;;;;;;18.13;58.54;99383.59;1087681;54;20030;-82
2022/10/24 02:46:36;;;;;;;6.25;1.42;;;;;;;18.20;58.33;99389.81;1087551;54;20034;-83
2022/10/24 02:47:40;;;;;;;5.88;1.50;;;;;;;18.16;58.61;99391.25;1087658;54;20045;-84
2022/10/24 02:48:51;;;;;;;3.65;1.15;;;;;;;18.19;58.47;99390.00;1087638;54;20035;-84
2022/10/24 02:49:53;;;;;;;5.05;1.50;;;;;;;18.16;58.76;99388.56;1087707;54;20037;-82
2022/10/24 02:50:57;;;;;;;9.65;1.92;;;;;;;18.08;58.95;99380.66;1087668;54;20018;-83
2022/10/24 02:52:00;;;;;;;5.15;1.55;;;;;;;18.13;58.82;99383.59;1087599;54;20049;-83
2022/10/24 02:53:05;;;;;;;8.55;1.73;;;;;;;18.07;58.62;99387.97;1087636;54;20038;-82
2022/10/24 02:54:07;;;;;;;4.32;1.30;;;;;;;18.15;58.83;99386.88;1087711;54;20057;-82
2022/10/24 02:55:13;;;;;;;6.55;1.83;;;;;;;18.14;58.81;99387.09;1087352;54;20027;-83
2022/10/24 02:56:14;;;;;;;5.28;1.20;;;;;;;18.22;58.64;99385.03;1087710;54;20046;-83
2022/10/24 02:57:20;;;;;;;9.90;1.48;;;;;;;18.20;58.67;99384.41;1087553;54;20041;-83
2022/10/24 02:58:22;;;;;;;4.47;1.52;;;;;;;18.22;58.63;99385.03;1087664;54;20042;-82
2022/10/24 02:59:26;;;;;;;5.90;1.35;;;;;;;18.27;58.42;99384.41;1087642;54;20041;-82
2022/10/24 03:00:27;;;;;;;6.43;1.52;;;;;;;18.24;58.51;99382.09;1087585;54;20061;-84
2022/10/24 03:01:31;;;;;;;7.20;1.60;;;;;;;18.19;58.67;99387.28;1087664;54;20014;-85
2022/10/24 03:02:33;;;;;;;6.28;1.70;;;;;;;18.23;58.39;99381.25;1087587;54;20061;-83
2022/10/24 03:03:37;;;;;;;9.88;1.85;;;;;;;18.28;58.37;99383.31;1087637;54;20066;-82
2022/10/24 03:04:41;;;;;;;7.95;1.90;;;;;;;18.19;58.48;99377.31;1087695;54;20022;-82
2022/10/24 03:05:45;;;;;;;7.15;1.52;;;;;;;18.22;58.40;99367.94;1087581;54;20034;-85
2022/10/24 03:06:47;;;;;;;6.38;1.60;;;;;;;18.19;58.59;99368.38;1087578;54;21151;-81
2022/10/24 03:07:51;;;;;;;8.02;1.50;;;;;;;18.21;58.54;99364.44;1090638;39;20649;-84
2022/10/24 03:08:53;;;;;;;4.53;1.10;;;;;;;18.28;58.55;99363.56;1089846;39;20663;-82
2022/10/24 03:09:57;;;;;;;5.82;1.65;;;;;;;18.21;58.48;99361.72;1087445;54;20034;-84
2022/10/24 03:10:58;;;;;;;7.13;1.85;;;;;;;18.09;58.70;99366.09;1087589;54;20816;-83
2022/10/24 03:12:02;;;;;;;6.70;2.22;;;;;;;18.12;58.63;99365.69;1087567;54;20036;-83
2022/10/24 03:13:04;;;;;;;5.60;1.60;;;;;;;18.12;58.92;99371.09;1087619;54;20034;-83
2022/10/24 03:14:08;;;;;;;10.40;1.70;;;;;;;18.19;58.35;99369.22;1087600;54;20030;-82
2022/10/24 03:15:10;;;;;;;7.60;1.50;;;;;;;18.21;58.63;99364.44;1088250;46;20030;-85
2022/10/24 03:16:14;;;;;;;5.65;1.58;;;;;;;18.21;58.47;99363.59;1087591;54;20753;-81
2022/10/24 03:17:16;;;;;;;6.90;1.75;;;;;;;18.16;58.62;99360.69;1087595;54;20042;-83
2022/10/24 03:18:20;;;;;;;4.97;1.90;;;;;;;18.24;58.23;99353.16;1087495;54;20030;-82
2022/10/24 03:19:22;;;;;;;3.97;1.30;;;;;;;18.27;58.17;99356.50;1087553;54;20034;-83
2022/10/24 03:20:29;;;;;;;10.07;1.90;;;;;;;18.22;58.16;99357.13;1087559;54;20029;-83
2022/10/24 03:21:31;;;;;;;5.50;1.40;;;;;;;18.19;58.45;99361.09;1087586;54;20038;-83
2022/10/24 03:22:35;;;;;;;7.38;1.50;;;;;;;18.27;58.45;99360.06;1087561;54;20041;-84
2022/10/24 03:23:37;;;;;;;6.00;2.22;;;;;;;18.26;58.50;99361.09;1088136;46;20062;-84
2022/10/24 03:24:41;;;;;;;6.80;1.90;;;;;;;18.32;58.51;99372.94;1087542;54;20034;-83
2022/10/24 03:25:42;;;;;;;4.20;1.40;;;;;;;18.30;58.57;99372.31;1087562;54;20038;-83
2022/10/24 03:26:46;;;;;;;6.50;1.65;;;;;;;18.29;58.62;99378.75;1087627;54;20042;-84
2022/10/24 03:27:48;;;;;;;7.63;1.83;;;;;;;18.24;58.63;99379.41;1087556;54;20107;-85
2022/10/24 03:28:52;;;;;;;7.22;2.03;;;;;;;18.21;58.63;99382.50;1087540;54;20750;-82
2022/10/24 03:29:53;;;;;;;6.45;1.73;;;;;;;18.22;58.48;99392.28;1087508;54;20057;-82
2022/10/24 03:30:58;;;;;;;4.78;1.83;;;;;;;18.21;58.67;99391.47;1087595;54;20041;-85
2022/10/24 03:31:59;;;;;;;6.97;2.10;;;;;;;18.21;58.79;99393.34;1087550;54;20042;-82
2022/10/24 03:33:03;;;;;;;8.07;1.70;;;;;;;18.27;58.39;99395.22;1087590;54;20467;-82
2022/10/24 03:34:05;;;;;;;6.70;1.80;;;;;;;18.24;58.69;99390.22;1087591;54;20061;-82
2022/10/24 03:35:10;;;;;;;5.47;1.52;;;;;;;18.30;58.44;99389.38;1087612;54;20041;-81
2022/10/24 03:36:17;;;;;;;6.63;1.58;;;;;;;18.31;58.61;99396.44;1087637;54;20057;-82
2022/10/24 03:37:19;;;;;;;8.63;1.65;;;;;;;18.34;58.47;99393.31;1088461;39;20697;-83
2022/10/24 03:38:24;;;;;;;6.60;1.48;;;;;;;18.38;58.52;99399.94;1087537;54;20037;-85
2022/10/24 03:39:26;;;;;;;7.45;1.63;;;;;;;18.39;58.37;99398.09;1087592;54;20046;-84
2022/10/24 03:40:30;;;;;;;6.18;1.98;;;;;;;18.42;58.30;99396.84;1092568;39;20594;-83
2022/10/24 03:41:31;;;;;;;6.60;1.50;;;;;;;18.43;58.23;99410.13;1087424;54;20050;-83
2022/10/24 03:42:35;;;;;;;4.95;1.23;;;;;;;18.44;58.53;99406.41;1087569;54;20082;-84
2022/10/24 03:43:37;;;;;;;6.47;1.52;;;;;;;18.38;58.46;99401.84;1087606;54;20062;-82
2022/10/24 03:44:41;;;;;;;6.85;1.70;;;;;;;18.38;58.58;99404.53;1087635;54;20033;-82
2022/10/24 03:45:42;;;;;;;6.75;1.90;;;;;;;18.37;58.76;99405.59;1087590;54;20057;-82
2022/10/24 03:46:47;;;;;;;8.75;1.83;;;;;;;18.35;58.66;99408.50;1088086;46;20031;-83
2022/10/24 03:47:48;;;;;;;7.03;1.80;;;;;;;18.17;59.17;99403.75;1087551;54;20033;-82
2022/10/24 03:48:53;;;;;;;7.30;1.83;;;;;;;18.32;59.04;99405.41;1087623;54;20037;-84
2022/10/24 03:49:54;;;;;;;7.50;1.75;;;;;;;18.37;58.88;99403.69;1087577;54;20768;-82
2022/10/24 03:50:58;;;;;;;4.65;1.40;;;;;;;18.37;58.83;99389.34;1087661;54;20026;-84
2022/10/24 03:52:03;;;;;;;6.80;1.90;;;;;;;18.19;59.12;99388.16;1088599;39;20985;-85
2022/10/24 03:53:10;;;;;;;6.25;1.88;;;;;;;18.32;59.01;99389.16;1087700;54;20065;-83
2022/10/24 03:54:14;;;;;;;7.63;2.38;;;;;;;18.36;58.97;99388.53;1087617;54;20057;-85
2022/10/24 03:55:18;;;;;;;6.20;1.73;;;;;;;18.30;58.98;99389.38;1087350;54;20173;-83
2022/10/24 03:56:19;;;;;;;7.25;1.80;;;;;;;18.32;58.99;99386.47;1087545;54;20038;-85
2022/10/24 03:57:24;;;;;;;8.15;1.63;;;;;;;18.35;59.03;99377.91;1087451;54;20046;-84
2022/10/24 03:58:35;;;;;;;7.18;1.63;;;;;;;18.28;59.18;99383.31;1088976;39;21047;-82
2022/10/24 03:59:37;;;;;;;7.18;1.50;;;;;;;18.38;58.94;99382.91;1087550;54;20034;-80
2022/10/24 04:00:41;;;;;;;9.52;1.85;;;;;;;18.19;59.53;99380.03;1087530;54;20037;-83
2022/10/24 04:01:43;;;;;;;7.15;2.08;;;;;;;18.38;59.20;99377.50;1087546;54;20053;-82
2022/10/24 04:02:49;;;;;;;8.82;2.25;;;;;;;18.40;58.98;99387.06;1087453;54;20037;-86
2022/10/24 04:03:51;;;;;;;9.25;2.35;;;;;;;18.35;59.04;99391.44;1087535;54;20065;-82
2022/10/24 04:04:55;;;;;;;9.00;2.22;;;;;;;18.49;58.85;99397.63;1087500;54;20058;-85
2022/10/24 04:05:56;;;;;;;9.55;2.28;;;;;;;18.42;59.23;99392.25;1087489;54;20333;-84
2022/10/24 04:07:01;;;;;;;6.15;1.90;;;;;;;18.54;58.85;99395.97;1087520;54;20035;-83
2022/10/24 04:08:06;;;;;;;7.13;2.10;;;;;;;18.36;59.01;99395.81;1087366;54;20035;-81
2022/10/24 04:09:11;;;;;;;8.45;1.75;;;;;;;18.47;58.99;99397.00;1092545;39;20719;-82
2022/10/24 04:10:14;;;;;;;8.43;1.75;;;;;;;18.51;58.82;99403.69;1087446;54;20064;-83
2022/10/24 04:11:28;;;;;;;7.03;1.77;;;;;;;18.47;59.01;99397.00;1087588;54;20513;-83
2022/10/24 04:12:37;;;;;;;8.82;1.95;;;;;;;18.54;59.20;99400.56;1089505;39;20187;-84
2022/10/24 04:13:48;;;;;;;10.52;2.40;;;;;;;18.58;58.94;99401.78;1087494;54;20090;-82
2022/10/24 04:14:56;;;;;;;;;;;;;;;18.38;59.17;99399.13;1087592;54;20053;-82
2022/10/24 04:16:12;;;;;;;7.60;2.17;;;;;;;18.44;59.42;99395.56;1087130;54;19942;-82
2022/10/24 04:17:25;;;;;;;7.55;1.75;;;;;;;18.51;59.05;99400.97;1087208;54;20034;-82
2022/10/24 04:18:34;;;;;;;5.82;2.20;;;;;;;18.49;59.02;99400.34;1087489;54;20038;-84
2022/10/24 04:19:45;;;;;;;8.05;1.77;;;;;;;18.62;58.81;99399.47;1087168;54;20030;-82
2022/10/24 04:20:57;;;;;;;7.63;2.35;;;;;;;18.53;59.04;99405.13;1087138;54;20030;-82
2022/10/24 04:22:08;;;;;;;8.80;2.25;;;;;;;18.63;58.71;99399.28;1087547;54;20037;-85
2022/10/24 04:23:26;;;;;;;11.05;3.20;;;;;;;18.62;58.87;99404.88;1087058;54;20082;-83
2022/10/24 04:24:33;;;;;;;9.75;2.80;;;;;;;18.62;58.95;99403.03;1087051;54;20034;-84
2022/10/24 04:25:43;;;;;;;12.45;3.10;;;;;;;18.48;59.40;99402.22;1088902;39;21087;-81
2022/10/24 04:26:48;;;;;;;8.85;2.20;;;;;;;18.35;59.74;99404.97;1087101;54;20034;-85
2022/10/24 04:28:00;;;;;;;7.95;2.05;;;;;;;18.45;59.53;99410.75;1087138;54;20039;-83
2022/10/24 04:29:08;;;;;;;11.63;3.05;;;;;;;18.46;59.37;99414.31;1087511;54;20054;-83
2022/10/24 04:30:24;;;;;;;9.10;2.10;;;;;;;18.53;59.06;99405.13;1087377;54;20034;-84
2022/10/24 04:31:36;;;;;;;6.00;1.90;;;;;;;18.61;59.35;99405.97;1087488;54;20074;-86
2022/10/24 04:32:48;;;;;;;10.88;2.22;;;;;;;18.37;59.64;99405.59;1087476;54;20064;-83
2022/10/24 04:33:59;;;;;;;9.55;2.60;;;;;;;18.42;59.74;99405.75;1087670;46;20094;-82
2022/10/24 04:35:10;;;;;;;10.95;2.75;;;;;;;18.57;59.54;99404.72;1087040;54;20107;-84
2022/10/24 04:36:13;;;;;;;;;;;;;;;18.32;59.92;99408.09;1087315;54;20927;-84
2022/10/24 04:37:19;;;;;;;10.68;2.20;;;;;;;18.49;59.67;99403.06;1087506;54;20630;-85
2022/10/24 04:38:26;;;;;;;11.18;2.55;;;;;;;18.46;59.63;99403.50;1087394;54;20710;-87
2022/10/24 04:39:35;;;;;;;9.30;2.17;;;;;;;18.58;59.59;99399.06;1087549;54;20061;-84
2022/10/24 04:40:39;;;;;;;15.50;4.75;;;;;;;18.43;59.94;99404.72;1087428;54;20034;-84
2022/10/24 04:41:51;;;;;;;7.97;2.13;;;;;;;18.56;59.63;99403.88;1090536;39;20615;-81
2022/10/24 04:42:54;;;;;;;9.57;2.65;;;;;;;18.59;59.41;99410.75;1087447;54;20017;-82
2022/10/24 04:43:59;;;;;;;8.27;2.00;;;;;;;18.62;59.22;99411.16;1088437;39;20697;-83
2022/10/24 04:45:00;;;;;;;8.20;2.15;;;;;;;18.76;58.84;99408.38;1087540;54;20035;-83
2022/10/24 04:46:05;;;;;;;9.43;2.28;;;;;;;18.69;59.05;99400.31;1087404;54;20034;-80
2022/10/24 04:47:06;;;;;;;5.47;2.13;;;;;;;18.79;58.93;99405.25;1087502;54;20091;-84
2022/10/24 04:48:11;;;;;;;8.05;1.90;;;;;;;18.68;59.17;99402.16;1087461;54;20095;-83
2022/10/24 04:49:12;;;;;;;7.63;2.13;;;;;;;18.77;58.98;99400.06;1087438;54;20053;-83
2022/10/24 04:50:17;;;;;;;8.25;2.22;;;;;;;18.68;58.97;99401.34;1087353;54;20042;-83
2022/10/24 04:51:21;;;;;;;8.02;2.42;;;;;;;18.74;59.23;99388.84;1087503;54;20022;-81
2022/10/24 04:52:22;;;;;;;7.97;2.20;;;;;;;18.73;59.19;99389.88;1087400;54;20041;-83
2022/10/24 04:53:29;;;;;;;8.68;2.55;;;;;;;18.76;59.02;99392.13;1087417;54;20733;-83
2022/10/24 04:54:31;;;;;;;6.60;2.25;;;;;;;18.71;59.44;99390.06;1088930;39;20311;-85
2022/10/24 04:55:35;;;;;;;9.68;2.45;;;;;;;18.77;58.98;99391.94;1087235;54;20037;-85
2022/10/24 04:56:36;;;;;;;5.82;1.85;;;;;;;18.77;58.98;99381.09;1088438;39;20301;-83
2022/10/24 04:57:40;;;;;;;7.32;1.77;;;;;;;18.77;59.27;99383.81;1087436;54;20042;-83
2022/10/24 04:58:42;;;;;;;6.78;1.90;;;;;;;18.74;59.10;99381.53;1087359;54;20034;-83
2022/10/24 04:59:46;;;;;;;8.57;2.35;;;;;;;18.70;59.12;99378.41;1087485;54;20065;-82
2022/10/24 05:00:50;;;;;;;6.55;2.15;;;;;;;18.61;59.58;99374.28;1087345;54;20078;-83
2022/10/24 05:01:53;;;;;;;4.55;1.50;;;;;;;18.71;59.34;99363.00;1087450;54;20061;-83
2022/10/24 05:02:57;;;;;;;13.27;2.15;;;;;;;18.66;59.65;99368.25;1087344;54;20038;-83
2022/10/24 05:03:58;;;;;;;5.45;1.70;;;;;;;18.77;59.38;99359.44;1087490;54;20023;-84
2022/10/24 05:05:03;;;;;;;9.45;1.80;;;;;;;18.72;59.37;99359.25;1087493;54;20031;-82
2022/10/24 05:06:07;;;;;;;7.47;2.22;;;;;;;18.73;59.63;99360.91;1087306;54;20030;-84
2022/10/24 05:07:09;;;;;;;6.50;1.38;;;;;;;18.70;59.61;99361.38;1087450;54;20045;-84
2022/10/24 05:08:13;;;;;;;5.57;1.52;;;;;;;18.71;59.61;99352.16;1087421;54;20507;-85
2022/10/24 05:09:17;;;;;;;6.72;1.80;;;;;;;18.61;59.95;99362.66;1087496;54;20022;-83
2022/10/24 05:10:22;;;;;;;6.25;2.00;;;;;;;18.62;59.84;99369.69;1087343;54;20022;-83
2022/10/24 05:11:23;;;;;;;8.70;1.80;;;;;;;18.60;59.81;99377.22;1087416;54;20034;-82